sensor_id;sensor_type;location;lat;lon;timestamp;pressure;altitude;pressure_sealevel;temperature;humidity
55315;BME280;41619;42.816;23.226;2023-03-26T00:01:52;94996.22;;;8.93;67.68
55315;BME280;41619;42.816;23.226;2023-03-26T00:04:18;94981.97;;;8.80;67.25
55315;BME280;41619;42.816;23.226;2023-03-26T00:06:46;94983.00;;;8.72;67.46
55315;BME280;41619;42.816;23.226;2023-03-26T00:09:14;94983.69;;;8.65;67.40
55315;BME280;41619;42.816;23.226;2023-03-26T00:11:41;94980.06;;;8.58;68.03
55315;BME280;41619;42.816;23.226;2023-03-26T00:14:08;94976.41;;;8.50;67.93
55315;BME280;41619;42.816;23.226;2023-03-26T00:16:38;94981.00;;;8.46;67.57
55315;BME280;41619;42.816;23.226;2023-03-26T00:19:03;94973.50;;;8.39;67.78
55315;BME280;41619;42.816;23.226;2023-03-26T00:21:29;94983.53;;;8.35;67.88
55315;BME280;41619;42.816;23.226;2023-03-26T00:24:01;94978.34;;;8.30;68.03
55315;BME280;41619;42.816;23.226;2023-03-26T00:26:29;94988.41;;;8.26;68.41
55315;BME280;41619;42.816;23.226;2023-03-26T00:28:56;94986.00;;;8.21;68.28
55315;BME280;41619;42.816;23.226;2023-03-26T00:31:22;94998.75;;;8.17;68.26
55315;BME280;41619;42.816;23.226;2023-03-26T00:33:49;95004.91;;;8.14;67.99
55315;BME280;41619;42.816;23.226;2023-03-26T00:36:20;95000.97;;;8.11;68.27
55315;BME280;41619;42.816;23.226;2023-03-26T00:38:46;95008.31;;;8.07;68.43
55315;BME280;41619;42.816;23.226;2023-03-26T00:41:14;95000.50;;;8.06;68.35
55315;BME280;41619;42.816;23.226;2023-03-26T00:43:48;95002.84;;;8.07;68.45
55315;BME280;41619;42.816;23.226;2023-03-26T00:46:15;95000.91;;;8.08;68.37
55315;BME280;41619;42.816;23.226;2023-03-26T00:48:41;94987.72;;;8.10;68.95
55315;BME280;41619;42.816;23.226;2023-03-26T00:51:07;95004.06;;;8.10;68.97
55315;BME280;41619;42.816;23.226;2023-03-26T00:53:33;94998.25;;;8.11;68.20
55315;BME280;41619;42.816;23.226;2023-03-26T00:55:58;95000.25;;;8.14;68.64
55315;BME280;41619;42.816;23.226;2023-03-26T00:58:27;95004.56;;;8.15;68.59
55315;BME280;41619;42.816;23.226;2023-03-26T01:00:58;95002.25;;;8.17;68.70
55315;BME280;41619;42.816;23.226;2023-03-26T01:03:26;95001.56;;;8.20;68.71
55315;BME280;41619;42.816;23.226;2023-03-26T01:08:41;95021.50;;;8.25;68.27
55315;BME280;41619;42.816;23.226;2023-03-26T01:13:56;95026.56;;;8.26;68.76
55315;BME280;41619;42.816;23.226;2023-03-26T01:16:30;95026.50;;;8.23;68.36
55315;BME280;41619;42.816;23.226;2023-03-26T01:18:58;95031.19;;;8.22;68.69
55315;BME280;41619;42.816;23.226;2023-03-26T01:21:26;95030.03;;;8.23;68.66
55315;BME280;41619;42.816;23.226;2023-03-26T01:24:01;95040.56;;;8.25;68.74
55315;BME280;41619;42.816;23.226;2023-03-26T01:29:02;95034.69;;;8.23;69.31
55315;BME280;41619;42.816;23.226;2023-03-26T01:31:42;95040.50;;;8.21;68.97
55315;BME280;41619;42.816;23.226;2023-03-26T01:34:39;95033.03;;;8.18;69.33
55315;BME280;41619;42.816;23.226;2023-03-26T01:37:59;95037.69;;;8.17;69.06
55315;BME280;41619;42.816;23.226;2023-03-26T01:40:34;95042.44;;;8.20;68.91
55315;BME280;41619;42.816;23.226;2023-03-26T01:46:02;95044.88;;;8.26;69.30
55315;BME280;41619;42.816;23.226;2023-03-26T01:48:35;95039.06;;;8.27;69.46
55315;BME280;41619;42.816;23.226;2023-03-26T01:51:01;95032.03;;;8.26;68.69
55315;BME280;41619;42.816;23.226;2023-03-26T01:53:27;95034.34;;;8.24;68.70
55315;BME280;41619;42.816;23.226;2023-03-26T01:58:40;95035.41;;;8.19;69.00
55315;BME280;41619;42.816;23.226;2023-03-26T02:01:32;95038.41;;;8.14;69.13
55315;BME280;41619;42.816;23.226;2023-03-26T02:06:45;95038.56;;;8.02;69.14
55315;BME280;41619;42.816;23.226;2023-03-26T02:09:15;95045.06;;;7.98;69.15
55315;BME280;41619;42.816;23.226;2023-03-26T02:11:45;95048.09;;;7.93;69.74
55315;BME280;41619;42.816;23.226;2023-03-26T02:14:12;95049.97;;;7.88;69.33
55315;BME280;41619;42.816;23.226;2023-03-26T02:16:37;95048.75;;;7.86;69.82
55315;BME280;41619;42.816;23.226;2023-03-26T02:19:03;95045.97;;;7.82;69.99
55315;BME280;41619;42.816;23.226;2023-03-26T02:21:28;95040.75;;;7.77;69.79
55315;BME280;41619;42.816;23.226;2023-03-26T02:23:58;95041.41;;;7.71;70.16
55315;BME280;41619;42.816;23.226;2023-03-26T02:26:32;95044.84;;;7.68;69.98
55315;BME280;41619;42.816;23.226;2023-03-26T02:28:58;95051.81;;;7.65;70.10
55315;BME280;41619;42.816;23.226;2023-03-26T02:31:25;95040.81;;;7.62;70.02
55315;BME280;41619;42.816;23.226;2023-03-26T02:33:52;95042.69;;;7.57;70.00
55315;BME280;41619;42.816;23.226;2023-03-26T02:36:20;95052.00;;;7.56;70.21
55315;BME280;41619;42.816;23.226;2023-03-26T02:38:48;95055.50;;;7.57;70.12
55315;BME280;41619;42.816;23.226;2023-03-26T02:41:15;95054.72;;;7.56;69.98
55315;BME280;41619;42.816;23.226;2023-03-26T02:43:40;95053.94;;;7.56;69.79
55315;BME280;41619;42.816;23.226;2023-03-26T02:46:05;95068.69;;;7.55;70.39
55315;BME280;41619;42.816;23.226;2023-03-26T02:48:31;95069.47;;;7.55;70.36
55315;BME280;41619;42.816;23.226;2023-03-26T02:50:59;95065.59;;;7.56;69.99
55315;BME280;41619;42.816;23.226;2023-03-26T02:53:25;95071.78;;;7.53;69.97
55315;BME280;41619;42.816;23.226;2023-03-26T02:55:57;95088.09;;;7.53;69.99
55315;BME280;41619;42.816;23.226;2023-03-26T02:58:23;95083.72;;;7.49;70.46
55315;BME280;41619;42.816;23.226;2023-03-26T03:00:50;95081.28;;;7.44;70.33
55315;BME280;41619;42.816;23.226;2023-03-26T03:03:20;95086.97;;;7.39;70.79
55315;BME280;41619;42.816;23.226;2023-03-26T03:05:49;95087.69;;;7.36;70.44
55315;BME280;41619;42.816;23.226;2023-03-26T03:08:19;95090.78;;;7.34;70.69
55315;BME280;41619;42.816;23.226;2023-03-26T03:10:56;95091.84;;;7.29;70.45
55315;BME280;41619;42.816;23.226;2023-03-26T03:13:22;95092.88;;;7.25;71.06
55315;BME280;41619;42.816;23.226;2023-03-26T03:15:47;95103.59;;;7.18;71.21
55315;BME280;41619;42.816;23.226;2023-03-26T03:18:13;95105.81;;;7.12;70.97
55315;BME280;41619;42.816;23.226;2023-03-26T03:20:38;95110.81;;;7.10;71.65
55315;BME280;41619;42.816;23.226;2023-03-26T03:23:04;95115.81;;;7.08;71.62
55315;BME280;41619;42.816;23.226;2023-03-26T03:25:29;95119.31;;;7.09;71.41
55315;BME280;41619;42.816;23.226;2023-03-26T03:27:54;95118.63;;;7.12;71.53
55315;BME280;41619;42.816;23.226;2023-03-26T03:30:20;95111.69;;;7.14;71.98
55315;BME280;41619;42.816;23.226;2023-03-26T03:32:45;95108.97;;;7.14;71.95
55315;BME280;41619;42.816;23.226;2023-03-26T03:35:11;95117.91;;;7.15;71.74
55315;BME280;41619;42.816;23.226;2023-03-26T03:37:36;95109.41;;;7.16;72.03
55315;BME280;41619;42.816;23.226;2023-03-26T03:40:03;95107.53;;;7.20;72.23
55315;BME280;41619;42.816;23.226;2023-03-26T03:42:31;95101.75;;;7.22;72.51
55315;BME280;41619;42.816;23.226;2023-03-26T03:44:57;95089.28;;;7.21;71.71
55315;BME280;41619;42.816;23.226;2023-03-26T03:47:22;95109.47;;;7.20;71.98
55315;BME280;41619;42.816;23.226;2023-03-26T03:49:47;95108.69;;;7.19;72.06
55315;BME280;41619;42.816;23.226;2023-03-26T03:52:14;95111.31;;;7.16;72.38
55315;BME280;41619;42.816;23.226;2023-03-26T03:54:40;95109.41;;;7.16;72.17
55315;BME280;41619;42.816;23.226;2023-03-26T03:57:06;95111.75;;;7.18;72.19
55315;BME280;41619;42.816;23.226;2023-03-26T03:59:31;95110.25;;;7.20;72.38
55315;BME280;41619;42.816;23.226;2023-03-26T04:01:56;95112.63;;;7.22;72.49
55315;BME280;41619;42.816;23.226;2023-03-26T04:04:22;95106.31;;;7.18;72.26
55315;BME280;41619;42.816;23.226;2023-03-26T04:06:49;95117.91;;;7.15;72.67
55315;BME280;41619;42.816;23.226;2023-03-26T04:09:15;95130.38;;;7.16;72.60
55315;BME280;41619;42.816;23.226;2023-03-26T04:11:40;95134.69;;;7.17;72.82
55315;BME280;41619;42.816;23.226;2023-03-26T04:14:06;95142.50;;;7.18;72.66
55315;BME280;41619;42.816;23.226;2023-03-26T04:16:31;95139.84;;;7.22;72.63
55315;BME280;41619;42.816;23.226;2023-03-26T04:18:57;95157.09;;;7.26;73.06
55315;BME280;41619;42.816;23.226;2023-03-26T04:21:22;95161.91;;;7.33;72.42
55315;BME280;41619;42.816;23.226;2023-03-26T04:23:49;95166.72;;;7.39;72.62
55315;BME280;41619;42.816;23.226;2023-03-26T04:26:16;95176.22;;;7.45;72.40
55315;BME280;41619;42.816;23.226;2023-03-26T04:31:11;95171.91;;;7.60;72.46
55315;BME280;41619;42.816;23.226;2023-03-26T04:33:43;95166.28;;;7.69;72.31
55315;BME280;41619;42.816;23.226;2023-03-26T04:36:11;95180.84;;;7.76;72.24
55315;BME280;41619;42.816;23.226;2023-03-26T04:38:42;95181.72;;;7.80;71.91
55315;BME280;41619;42.816;23.226;2023-03-26T04:41:11;95188.84;;;7.85;71.50
55315;BME280;41619;42.816;23.226;2023-03-26T04:43:36;95184.25;;;7.89;71.88
55315;BME280;41619;42.816;23.226;2023-03-26T04:46:11;95194.44;;;7.92;71.03
55315;BME280;41619;42.816;23.226;2023-03-26T04:48:37;95202.69;;;7.96;71.27
55315;BME280;41619;42.816;23.226;2023-03-26T04:51:03;95201.56;;;7.97;71.63
55315;BME280;41619;42.816;23.226;2023-03-26T04:53:31;95200.88;;;8.00;70.87
55315;BME280;41619;42.816;23.226;2023-03-26T04:56:24;95196.53;;;7.99;71.14
55315;BME280;41619;42.816;23.226;2023-03-26T04:58:56;95200.06;;;7.99;71.45
55315;BME280;41619;42.816;23.226;2023-03-26T05:01:24;95211.41;;;8.01;70.91
55315;BME280;41619;42.816;23.226;2023-03-26T05:03:53;95200.16;;;8.03;70.90
55315;BME280;41619;42.816;23.226;2023-03-26T05:06:18;95208.41;;;8.06;70.87
55315;BME280;41619;42.816;23.226;2023-03-26T05:08:43;95219.75;;;8.08;70.91
55315;BME280;41619;42.816;23.226;2023-03-26T05:11:09;95215.88;;;8.09;71.17
55315;BME280;41619;42.816;23.226;2023-03-26T05:13:36;95215.16;;;8.12;70.80
55315;BME280;41619;42.816;23.226;2023-03-26T05:16:01;95221.47;;;8.16;70.51
55315;BME280;41619;42.816;23.226;2023-03-26T05:18:27;95220.44;;;8.21;70.83
55315;BME280;41619;42.816;23.226;2023-03-26T05:20:52;95233.34;;;8.24;70.36
55315;BME280;41619;42.816;23.226;2023-03-26T05:23:17;95231.47;;;8.28;70.09
55315;BME280;41619;42.816;23.226;2023-03-26T05:25:43;95241.00;;;8.34;70.42
55315;BME280;41619;42.816;23.226;2023-03-26T05:28:09;95238.00;;;8.39;70.38
55315;BME280;41619;42.816;23.226;2023-03-26T05:30:35;95244.75;;;8.45;69.99
55315;BME280;41619;42.816;23.226;2023-03-26T05:33:00;95235.13;;;8.52;69.79
55315;BME280;41619;42.816;23.226;2023-03-26T05:35:27;95241.19;;;8.61;69.75
55315;BME280;41619;42.816;23.226;2023-03-26T05:37:52;95241.75;;;8.70;69.74
55315;BME280;41619;42.816;23.226;2023-03-26T05:40:18;95246.16;;;8.74;69.48
55315;BME280;41619;42.816;23.226;2023-03-26T05:42:44;95235.69;;;8.76;69.28
55315;BME280;41619;42.816;23.226;2023-03-26T05:45:12;95232.16;;;8.76;69.20
55315;BME280;41619;42.816;23.226;2023-03-26T05:47:38;95240.72;;;8.74;69.28
55315;BME280;41619;42.816;23.226;2023-03-26T05:50:04;95237.19;;;8.74;69.56
55315;BME280;41619;42.816;23.226;2023-03-26T05:52:31;95227.84;;;8.75;69.49
55315;BME280;41619;42.816;23.226;2023-03-26T05:54:56;95226.41;;;8.81;69.05
55315;BME280;41619;42.816;23.226;2023-03-26T05:57:21;95219.22;;;8.92;69.25
55315;BME280;41619;42.816;23.226;2023-03-26T05:59:48;95221.00;;;9.04;68.61
55315;BME280;41619;42.816;23.226;2023-03-26T06:02:14;95219.72;;;9.17;68.39
55315;BME280;41619;42.816;23.226;2023-03-26T06:04:39;95216.38;;;9.27;68.02
55315;BME280;41619;42.816;23.226;2023-03-26T06:07:07;95219.00;;;9.43;67.96
55315;BME280;41619;42.816;23.226;2023-03-26T06:09:37;95225.50;;;9.58;67.41
55315;BME280;41619;42.816;23.226;2023-03-26T06:12:04;95220.28;;;9.72;67.03
55315;BME280;41619;42.816;23.226;2023-03-26T06:14:30;95221.25;;;9.83;66.52
55315;BME280;41619;42.816;23.226;2023-03-26T06:16:55;95228.88;;;9.97;66.39
55315;BME280;41619;42.816;23.226;2023-03-26T06:19:21;95227.16;;;10.12;65.95
55315;BME280;41619;42.816;23.226;2023-03-26T06:21:46;95215.28;;;10.23;65.72
55315;BME280;41619;42.816;23.226;2023-03-26T06:24:11;95224.81;;;10.37;65.16
55315;BME280;41619;42.816;23.226;2023-03-26T06:26:37;95219.56;;;10.51;65.11
55315;BME280;41619;42.816;23.226;2023-03-26T06:29:02;95221.00;;;10.71;64.94
55315;BME280;41619;42.816;23.226;2023-03-26T06:31:28;95224.38;;;10.91;64.54
55315;BME280;41619;42.816;23.226;2023-03-26T06:33:53;95220.69;;;11.10;64.23
55315;BME280;41619;42.816;23.226;2023-03-26T06:36:18;95222.06;;;11.27;63.46
55315;BME280;41619;42.816;23.226;2023-03-26T06:38:44;95224.19;;;11.44;63.21
55315;BME280;41619;42.816;23.226;2023-03-26T06:41:10;95226.25;;;11.54;62.98
55315;BME280;41619;42.816;23.226;2023-03-26T06:43:35;95238.50;;;11.67;62.28
55315;BME280;41619;42.816;23.226;2023-03-26T06:46:02;95230.84;;;11.80;62.11
55315;BME280;41619;42.816;23.226;2023-03-26T06:48:28;95239.63;;;12.00;61.83
55315;BME280;41619;42.816;23.226;2023-03-26T06:50:53;95246.03;;;12.18;61.24
55315;BME280;41619;42.816;23.226;2023-03-26T06:53:19;95251.25;;;12.34;60.87
55315;BME280;41619;42.816;23.226;2023-03-26T06:55:44;95247.88;;;12.55;60.52
55315;BME280;41619;42.816;23.226;2023-03-26T06:58:11;95240.94;;;12.79;60.04
55315;BME280;41619;42.816;23.226;2023-03-26T07:00:36;95242.59;;;12.97;59.67
55315;BME280;41619;42.816;23.226;2023-03-26T07:03:05;95238.34;;;13.14;58.68
55315;BME280;41619;42.816;23.226;2023-03-26T07:05:31;95236.03;;;13.20;58.61
55315;BME280;41619;42.816;23.226;2023-03-26T07:07:56;95227.47;;;13.36;58.56
55315;BME280;41619;42.816;23.226;2023-03-26T07:10:22;95222.38;;;13.38;57.98
55315;BME280;41619;42.816;23.226;2023-03-26T07:12:48;95216.13;;;13.48;57.97
55315;BME280;41619;42.816;23.226;2023-03-26T07:15:13;95216.53;;;13.68;57.71
55315;BME280;41619;42.816;23.226;2023-03-26T07:17:38;95221.28;;;13.92;57.44
55315;BME280;41619;42.816;23.226;2023-03-26T07:20:06;95217.75;;;14.16;56.60
55315;BME280;41619;42.816;23.226;2023-03-26T07:22:33;95212.66;;;14.43;56.17
55315;BME280;41619;42.816;23.226;2023-03-26T07:24:59;95204.75;;;14.63;55.48
55315;BME280;41619;42.816;23.226;2023-03-26T07:33:05;95206.25;;;14.89;54.55
55315;BME280;41619;42.816;23.226;2023-03-26T07:35:54;95206.97;;;15.04;53.64
55315;BME280;41619;42.816;23.226;2023-03-26T07:38:32;95212.81;;;15.20;54.83
55315;BME280;41619;42.816;23.226;2023-03-26T07:46:30;95209.84;;;18.19;53.97
55315;BME280;41619;42.816;23.226;2023-03-26T07:48:58;95206.28;;;21.14;47.80
55315;BME280;41619;42.816;23.226;2023-03-26T07:51:26;95210.13;;;23.55;43.36
55315;BME280;41619;42.816;23.226;2023-03-26T07:53:51;95219.47;;;25.40;39.73
55315;BME280;41619;42.816;23.226;2023-03-26T07:56:33;95201.06;;;27.17;35.89
55315;BME280;41619;42.816;23.226;2023-03-26T07:59:17;95195.34;;;28.39;33.84
55315;BME280;41619;42.816;23.226;2023-03-26T08:04:49;95195.50;;;30.55;30.90
55315;BME280;41619;42.816;23.226;2023-03-26T08:07:31;95174.75;;;31.72;28.33
55315;BME280;41619;42.816;23.226;2023-03-26T08:15:44;95186.41;;;32.80;25.08
55315;BME280;41619;42.816;23.226;2023-03-26T08:20:43;95186.13;;;32.16;25.13
55315;BME280;41619;42.816;23.226;2023-03-26T08:23:22;95175.59;;;32.34;23.93
55315;BME280;41619;42.816;23.226;2023-03-26T08:29:08;95176.38;;;32.51;23.90
55315;BME280;41619;42.816;23.226;2023-03-26T08:31:39;95187.31;;;33.16;22.71
55315;BME280;41619;42.816;23.226;2023-03-26T08:34:08;95184.53;;;33.68;21.24
55315;BME280;41619;42.816;23.226;2023-03-26T08:36:35;95179.16;;;34.06;20.36
55315;BME280;41619;42.816;23.226;2023-03-26T08:39:01;95176.91;;;33.93;19.88
55315;BME280;41619;42.816;23.226;2023-03-26T08:53:05;95173.50;;;31.13;19.90
55315;BME280;41619;42.816;23.226;2023-03-26T08:55:44;95172.19;;;30.23;20.90
55315;BME280;41619;42.816;23.226;2023-03-26T09:17:49;95149.25;;;33.99;16.62
55315;BME280;41619;42.816;23.226;2023-03-26T09:34:31;95121.34;;;34.64;16.17
55315;BME280;41619;42.816;23.226;2023-03-26T09:37:16;95128.00;;;34.96;15.27
55315;BME280;41619;42.816;23.226;2023-03-26T09:40:16;95109.66;;;34.67;15.61
55315;BME280;41619;42.816;23.226;2023-03-26T09:53:46;95103.25;;;34.07;15.31
55315;BME280;41619;42.816;23.226;2023-03-26T09:56:29;95110.44;;;34.43;14.62
55315;BME280;41619;42.816;23.226;2023-03-26T10:01:41;95090.34;;;34.84;14.35
55315;BME280;41619;42.816;23.226;2023-03-26T10:07:02;95087.22;;;34.88;13.74
55315;BME280;41619;42.816;23.226;2023-03-26T10:10:00;95084.69;;;34.06;14.28
55315;BME280;41619;42.816;23.226;2023-03-26T10:12:49;95070.13;;;34.15;14.30
55315;BME280;41619;42.816;23.226;2023-03-26T10:15:30;95074.63;;;34.59;14.36
55315;BME280;41619;42.816;23.226;2023-03-26T10:18:03;95071.50;;;34.63;13.70
55315;BME280;41619;42.816;23.226;2023-03-26T10:20:58;95072.28;;;34.33;13.80
55315;BME280;41619;42.816;23.226;2023-03-26T10:28:53;95044.91;;;34.60;13.80
55315;BME280;41619;42.816;23.226;2023-03-26T10:31:43;95034.44;;;34.92;13.06
55315;BME280;41619;42.816;23.226;2023-03-26T10:34:37;95040.28;;;34.57;13.48
55315;BME280;41619;42.816;23.226;2023-03-26T10:42:49;95035.84;;;34.61;12.54
55315;BME280;41619;42.816;23.226;2023-03-26T10:48:20;95018.72;;;34.18;12.38
55315;BME280;41619;42.816;23.226;2023-03-26T10:51:17;95026.22;;;33.56;12.71
55315;BME280;41619;42.816;23.226;2023-03-26T10:56:45;95017.00;;;33.50;12.42
55315;BME280;41619;42.816;23.226;2023-03-26T10:59:14;95009.63;;;33.65;12.33
55315;BME280;41619;42.816;23.226;2023-03-26T11:09:43;95006.81;;;31.30;12.43
55315;BME280;41619;42.816;23.226;2023-03-26T11:14:50;94998.19;;;27.72;14.36
55315;BME280;41619;42.816;23.226;2023-03-26T11:20:06;94995.84;;;24.23;16.75
55315;BME280;41619;42.816;23.226;2023-03-26T11:32:08;94981.06;;;21.71;19.07
55315;BME280;41619;42.816;23.226;2023-03-26T11:35:01;94971.78;;;21.39;19.02
55315;BME280;41619;42.816;23.226;2023-03-26T11:37:40;94969.88;;;21.24;19.12
55315;BME280;41619;42.816;23.226;2023-03-26T11:40:13;94953.94;;;21.11;19.95
55315;BME280;41619;42.816;23.226;2023-03-26T11:42:40;94948.63;;;21.04;19.58
55315;BME280;41619;42.816;23.226;2023-03-26T11:45:13;94952.72;;;21.00;20.15
55315;BME280;41619;42.816;23.226;2023-03-26T11:47:49;94950.72;;;21.00;20.21
55315;BME280;41619;42.816;23.226;2023-03-26T11:50:26;94947.28;;;20.96;20.52
55315;BME280;41619;42.816;23.226;2023-03-26T11:53:02;94947.94;;;21.00;20.91
55315;BME280;41619;42.816;23.226;2023-03-26T11:55:35;94941.25;;;20.98;21.13
55315;BME280;41619;42.816;23.226;2023-03-26T11:58:02;94937.47;;;20.92;20.93
55315;BME280;41619;42.816;23.226;2023-03-26T12:00:30;94928.47;;;20.75;21.34
55315;BME280;41619;42.816;23.226;2023-03-26T12:02:57;94922.69;;;20.69;21.21
55315;BME280;41619;42.816;23.226;2023-03-26T12:05:27;94920.69;;;20.70;21.28
55315;BME280;41619;42.816;23.226;2023-03-26T12:08:17;94923.25;;;20.64;21.20
55315;BME280;41619;42.816;23.226;2023-03-26T12:10:50;94918.66;;;20.58;21.40
55315;BME280;41619;42.816;23.226;2023-03-26T12:13:25;94916.22;;;20.60;21.23
55315;BME280;41619;42.816;23.226;2023-03-26T12:15:57;94912.91;;;20.65;22.01
55315;BME280;41619;42.816;23.226;2023-03-26T12:18:25;94900.88;;;20.68;21.57
55315;BME280;41619;42.816;23.226;2023-03-26T12:21:18;94899.53;;;20.60;21.62
55315;BME280;41619;42.816;23.226;2023-03-26T12:26:18;94902.63;;;20.62;22.04
55315;BME280;41619;42.816;23.226;2023-03-26T12:28:47;94908.44;;;20.54;21.56
55315;BME280;41619;42.816;23.226;2023-03-26T12:31:14;94896.31;;;20.48;21.50
55315;BME280;41619;42.816;23.226;2023-03-26T12:34:05;94882.59;;;20.41;21.51
55315;BME280;41619;42.816;23.226;2023-03-26T12:36:31;94890.81;;;20.45;21.29
55315;BME280;41619;42.816;23.226;2023-03-26T12:38:57;94877.38;;;20.43;21.36
55315;BME280;41619;42.816;23.226;2023-03-26T12:41:37;94879.38;;;20.43;21.10
55315;BME280;41619;42.816;23.226;2023-03-26T12:44:42;94877.28;;;20.47;21.12
55315;BME280;41619;42.816;23.226;2023-03-26T12:47:16;94873.28;;;20.48;21.02
55315;BME280;41619;42.816;23.226;2023-03-26T12:49:42;94875.97;;;20.51;21.14
55315;BME280;41619;42.816;23.226;2023-03-26T12:52:13;94873.50;;;20.53;21.38
55315;BME280;41619;42.816;23.226;2023-03-26T12:57:48;94869.06;;;20.56;21.69
55315;BME280;41619;42.816;23.226;2023-03-26T13:00:44;94870.06;;;20.62;21.41
55315;BME280;41619;42.816;23.226;2023-03-26T13:03:27;94862.50;;;20.63;21.51
55315;BME280;41619;42.816;23.226;2023-03-26T13:06:10;94872.28;;;20.54;21.21
55315;BME280;41619;42.816;23.226;2023-03-26T13:11:28;94857.59;;;20.41;21.34
55315;BME280;41619;42.816;23.226;2023-03-26T13:14:07;94853.22;;;20.27;21.24
55315;BME280;41619;42.816;23.226;2023-03-26T13:16:54;94855.19;;;20.14;21.04
55315;BME280;41619;42.816;23.226;2023-03-26T13:19:32;94855.06;;;20.05;21.40
55315;BME280;41619;42.816;23.226;2023-03-26T13:24:45;94857.19;;;19.72;21.07
55315;BME280;41619;42.816;23.226;2023-03-26T13:27:34;94855.69;;;19.55;21.45
55315;BME280;41619;42.816;23.226;2023-03-26T13:30:17;94855.16;;;19.44;21.75
55315;BME280;41619;42.816;23.226;2023-03-26T13:35:58;94844.31;;;19.33;21.83
55315;BME280;41619;42.816;23.226;2023-03-26T13:44:46;94836.41;;;19.02;21.39
55315;BME280;41619;42.816;23.226;2023-03-26T13:47:18;94844.09;;;18.95;21.62
55315;BME280;41619;42.816;23.226;2023-03-26T13:49:49;94844.28;;;18.88;21.44
55315;BME280;41619;42.816;23.226;2023-03-26T13:52:42;94846.13;;;18.78;21.32
55315;BME280;41619;42.816;23.226;2023-03-26T13:58:09;94841.13;;;18.53;21.46
55315;BME280;41619;42.816;23.226;2023-03-26T14:00:53;94835.13;;;18.38;21.51
55315;BME280;41619;42.816;23.226;2023-03-26T14:03:28;94844.91;;;18.27;21.91
55315;BME280;41619;42.816;23.226;2023-03-26T14:06:05;94832.06;;;18.16;21.63
55315;BME280;41619;42.816;23.226;2023-03-26T14:08:38;94833.50;;;18.05;22.02
55315;BME280;41619;42.816;23.226;2023-03-26T14:11:09;94823.44;;;17.95;21.53
55315;BME280;41619;42.816;23.226;2023-03-26T14:13:56;94817.72;;;17.85;21.35
55315;BME280;41619;42.816;23.226;2023-03-26T14:16:38;94822.31;;;17.72;21.53
55315;BME280;41619;42.816;23.226;2023-03-26T14:19:51;94817.75;;;17.62;21.26
55315;BME280;41619;42.816;23.226;2023-03-26T14:41:28;94814.91;;;17.03;22.49
55315;BME280;41619;42.816;23.226;2023-03-26T14:44:16;94817.31;;;17.01;22.33
55315;BME280;41619;42.816;23.226;2023-03-26T14:49:44;94812.41;;;16.88;22.34
55315;BME280;41619;42.816;23.226;2023-03-26T14:52:37;94804.53;;;16.87;22.35
55315;BME280;41619;42.816;23.226;2023-03-26T15:01:20;94821.31;;;16.76;22.68
55315;BME280;41619;42.816;23.226;2023-03-26T15:15:48;94820.38;;;16.59;23.20
55315;BME280;41619;42.816;23.226;2023-03-26T15:32:16;94805.72;;;16.35;25.11
55315;BME280;41619;42.816;23.226;2023-03-26T15:40:58;94805.50;;;16.26;25.01
55315;BME280;41619;42.816;23.226;2023-03-26T15:44:00;94809.88;;;16.24;25.47
55315;BME280;41619;42.816;23.226;2023-03-26T15:52:11;94806.81;;;16.18;25.75
55315;BME280;41619;42.816;23.226;2023-03-26T15:54:59;94805.28;;;16.14;25.94
55315;BME280;41619;42.816;23.226;2023-03-26T15:57:30;94815.59;;;16.10;26.10
55315;BME280;41619;42.816;23.226;2023-03-26T16:00:19;94813.66;;;16.07;26.18
55315;BME280;41619;42.816;23.226;2023-03-26T16:10:51;94817.63;;;15.75;26.74
55315;BME280;41619;42.816;23.226;2023-03-26T16:15:58;94813.53;;;15.53;27.46
55315;BME280;41619;42.816;23.226;2023-03-26T16:18:36;94810.53;;;15.40;27.37
55315;BME280;41619;42.816;23.226;2023-03-26T16:26:16;94805.03;;;15.02;28.27
55315;BME280;41619;42.816;23.226;2023-03-26T16:33:47;94801.84;;;14.66;28.96
55315;BME280;41619;42.816;23.226;2023-03-26T16:38:52;94799.25;;;14.45;29.09
55315;BME280;41619;42.816;23.226;2023-03-26T16:41:22;94802.09;;;14.34;29.35
55315;BME280;41619;42.816;23.226;2023-03-26T16:55:37;94804.06;;;13.68;29.69
55315;BME280;41619;42.816;23.226;2023-03-26T17:09:03;94814.16;;;12.65;31.36
55315;BME280;41619;42.816;23.226;2023-03-26T17:22:38;94832.19;;;12.38;32.00
55315;BME280;41619;42.816;23.226;2023-03-26T17:25:18;94828.69;;;12.34;32.00
55315;BME280;41619;42.816;23.226;2023-03-26T17:27:51;94836.13;;;12.30;32.18
55315;BME280;41619;42.816;23.226;2023-03-26T17:33:11;94841.19;;;12.17;32.40
55315;BME280;41619;42.816;23.226;2023-03-26T17:35:45;94841.56;;;12.08;32.88
55315;BME280;41619;42.816;23.226;2023-03-26T17:40:53;94830.97;;;11.96;32.89
55315;BME280;41619;42.816;23.226;2023-03-26T17:46:39;94830.13;;;11.78;33.59
55315;BME280;41619;42.816;23.226;2023-03-26T17:51:43;94832.81;;;11.60;33.55
55315;BME280;41619;42.816;23.226;2023-03-26T17:54:17;94835.53;;;11.53;33.75
55315;BME280;41619;42.816;23.226;2023-03-26T17:56:45;94825.31;;;11.46;34.24
55315;BME280;41619;42.816;23.226;2023-03-26T17:59:19;94835.88;;;11.41;34.63
55315;BME280;41619;42.816;23.226;2023-03-26T18:01:50;94833.09;;;11.34;34.54
55315;BME280;41619;42.816;23.226;2023-03-26T18:04:41;94836.19;;;11.29;35.14
55315;BME280;41619;42.816;23.226;2023-03-26T18:10:22;94837.72;;;11.19;35.80
55315;BME280;41619;42.816;23.226;2023-03-26T18:16:14;94839.22;;;11.09;36.47
55315;BME280;41619;42.816;23.226;2023-03-26T18:18:50;94834.53;;;11.06;36.53
55315;BME280;41619;42.816;23.226;2023-03-26T18:21:23;94827.88;;;11.04;36.69
55315;BME280;41619;42.816;23.226;2023-03-26T18:23:50;94833.31;;;11.00;36.89
55315;BME280;41619;42.816;23.226;2023-03-26T18:26:19;94828.19;;;10.95;37.34
55315;BME280;41619;42.816;23.226;2023-03-26T18:31:41;94831.28;;;10.83;37.83